sensor_id;sensor_type;location;lat;lon;timestamp;pressure;altitude;pressure_sealevel;temperature;humidity
49297;BME280;35163;48.878;18.040;2022-07-06T00:02:21;98484.59;;;16.51;100.00
49297;BME280;35163;48.878;18.040;2022-07-06T00:04:48;98486.97;;;16.56;100.00
49297;BME280;35163;48.878;18.040;2022-07-06T00:07:14;98482.31;;;16.61;100.00
49297;BME280;35163;48.878;18.040;2022-07-06T00:09:41;98488.13;;;16.66;100.00
49297;BME280;35163;48.878;18.040;2022-07-06T00:12:09;98490.56;;;16.69;100.00
49297;BME280;35163;48.878;18.040;2022-07-06T00:14:35;98495.56;;;16.74;100.00
49297;BME280;35163;48.878;18.040;2022-07-06T00:17:05;98503.97;;;16.79;100.00
49297;BME280;35163;48.878;18.040;2022-07-06T00:19:32;98499.56;;;16.80;100.00
49297;BME280;35163;48.878;18.040;2022-07-06T00:21:59;98495.19;;;16.80;100.00
49297;BME280;35163;48.878;18.040;2022-07-06T00:24:28;98495.28;;;16.79;100.00
49297;BME280;35163;48.878;18.040;2022-07-06T00:26:55;98489.97;;;16.80;100.00
49297;BME280;35163;48.878;18.040;2022-07-06T00:29:22;98495.59;;;16.88;100.00
49297;BME280;35163;48.878;18.040;2022-07-06T00:31:48;98493.66;;;16.92;100.00
49297;BME280;35163;48.878;18.040;2022-07-06T00:34:15;98493.75;;;16.91;100.00
49297;BME280;35163;48.878;18.040;2022-07-06T00:36:42;98493.00;;;16.88;100.00
49297;BME280;35163;48.878;18.040;2022-07-06T00:39:09;98497.38;;;16.88;100.00
49297;BME280;35163;48.878;18.040;2022-07-06T00:41:36;98496.47;;;16.89;100.00
49297;BME280;35163;48.878;18.040;2022-07-06T00:44:07;98500.66;;;16.92;100.00
49297;BME280;35163;48.878;18.040;2022-07-06T00:46:35;98491.22;;;16.89;100.00
49297;BME280;35163;48.878;18.040;2022-07-06T00:49:02;98495.50;;;16.90;100.00
49297;BME280;35163;48.878;18.040;2022-07-06T00:51:30;98497.03;;;16.94;100.00
49297;BME280;35163;48.878;18.040;2022-07-06T00:53:59;98499.13;;;17.04;100.00
49297;BME280;35163;48.878;18.040;2022-07-06T00:56:29;98499.88;;;17.06;100.00
49297;BME280;35163;48.878;18.040;2022-07-06T00:58:58;98492.66;;;17.11;100.00
49297;BME280;35163;48.878;18.040;2022-07-06T01:01:25;98492.28;;;17.17;100.00
49297;BME280;35163;48.878;18.040;2022-07-06T01:03:52;98494.66;;;17.22;100.00
49297;BME280;35163;48.878;18.040;2022-07-06T01:06:18;98501.53;;;17.23;100.00
49297;BME280;35163;48.878;18.040;2022-07-06T01:08:45;98491.00;;;17.24;100.00
49297;BME280;35163;48.878;18.040;2022-07-06T01:11:12;98497.84;;;17.27;100.00
49297;BME280;35163;48.878;18.040;2022-07-06T01:13:39;98501.38;;;17.26;100.00
49297;BME280;35163;48.878;18.040;2022-07-06T01:16:06;98502.69;;;17.33;100.00
49297;BME280;35163;48.878;18.040;2022-07-06T01:18:33;98509.47;;;17.21;100.00
49297;BME280;35163;48.878;18.040;2022-07-06T01:21:14;98507.97;;;17.17;100.00
49297;BME280;35163;48.878;18.040;2022-07-06T01:23:46;98513.09;;;17.19;100.00
49297;BME280;35163;48.878;18.040;2022-07-06T01:26:17;98500.03;;;17.19;100.00
49297;BME280;35163;48.878;18.040;2022-07-06T01:28:50;98496.50;;;17.20;100.00
49297;BME280;35163;48.878;18.040;2022-07-06T01:31:26;98493.13;;;17.18;100.00
49297;BME280;35163;48.878;18.040;2022-07-06T01:33:55;98501.16;;;17.15;100.00
49297;BME280;35163;48.878;18.040;2022-07-06T01:36:22;98497.69;;;17.14;100.00
49297;BME280;35163;48.878;18.040;2022-07-06T01:38:49;98497.25;;;17.06;100.00
49297;BME280;35163;48.878;18.040;2022-07-06T01:41:17;98498.53;;;16.98;100.00
49297;BME280;35163;48.878;18.040;2022-07-06T01:43:44;98497.22;;;16.91;100.00
49297;BME280;35163;48.878;18.040;2022-07-06T01:46:12;98499.06;;;16.89;100.00
49297;BME280;35163;48.878;18.040;2022-07-06T01:48:39;98502.44;;;16.91;100.00
49297;BME280;35163;48.878;18.040;2022-07-06T01:51:06;98504.47;;;16.86;100.00
49297;BME280;35163;48.878;18.040;2022-07-06T01:53:33;98502.78;;;16.85;100.00
49297;BME280;35163;48.878;18.040;2022-07-06T01:56:00;98510.88;;;16.80;100.00
49297;BME280;35163;48.878;18.040;2022-07-06T01:58:27;98506.06;;;16.72;100.00
49297;BME280;35163;48.878;18.040;2022-07-06T02:00:54;98516.66;;;16.69;100.00
49297;BME280;35163;48.878;18.040;2022-07-06T02:03:20;98517.78;;;16.65;100.00
49297;BME280;35163;48.878;18.040;2022-07-06T02:05:48;98514.91;;;16.54;100.00
49297;BME280;35163;48.878;18.040;2022-07-06T02:08:14;98509.03;;;16.50;100.00
49297;BME280;35163;48.878;18.040;2022-07-06T02:10:41;98507.34;;;16.49;100.00
49297;BME280;35163;48.878;18.040;2022-07-06T02:13:08;98508.34;;;16.46;100.00
49297;BME280;35163;48.878;18.040;2022-07-06T02:15:34;98507.59;;;16.44;100.00
49297;BME280;35163;48.878;18.040;2022-07-06T02:18:01;98509.53;;;16.40;100.00
49297;BME280;35163;48.878;18.040;2022-07-06T02:20:28;98505.81;;;16.28;100.00
49297;BME280;35163;48.878;18.040;2022-07-06T02:22:54;98506.16;;;16.22;100.00
49297;BME280;35163;48.878;18.040;2022-07-06T02:25:21;98511.38;;;16.22;100.00
49297;BME280;35163;48.878;18.040;2022-07-06T02:27:48;98515.13;;;16.17;100.00
49297;BME280;35163;48.878;18.040;2022-07-06T02:30:15;98511.69;;;16.16;100.00
49297;BME280;35163;48.878;18.040;2022-07-06T02:32:42;98518.22;;;16.07;100.00
49297;BME280;35163;48.878;18.040;2022-07-06T02:35:09;98517.69;;;16.00;100.00
49297;BME280;35163;48.878;18.040;2022-07-06T02:37:35;98519.53;;;15.98;100.00
49297;BME280;35163;48.878;18.040;2022-07-06T02:40:02;98531.97;;;15.93;100.00
49297;BME280;35163;48.878;18.040;2022-07-06T02:42:29;98535.47;;;15.92;100.00
49297;BME280;35163;48.878;18.040;2022-07-06T02:44:56;98542.16;;;15.98;100.00
49297;BME280;35163;48.878;18.040;2022-07-06T02:47:22;98538.34;;;15.87;100.00
49297;BME280;35163;48.878;18.040;2022-07-06T02:49:49;98543.78;;;15.83;100.00
49297;BME280;35163;48.878;18.040;2022-07-06T02:52:16;98541.88;;;15.86;100.00
49297;BME280;35163;48.878;18.040;2022-07-06T02:54:42;98548.06;;;15.84;100.00
49297;BME280;35163;48.878;18.040;2022-07-06T02:57:09;98552.97;;;15.90;100.00
49297;BME280;35163;48.878;18.040;2022-07-06T02:59:36;98542.25;;;15.78;100.00
49297;BME280;35163;48.878;18.040;2022-07-06T03:02:04;98551.00;;;15.77;100.00
49297;BME280;35163;48.878;18.040;2022-07-06T03:04:31;98541.63;;;15.73;100.00
49297;BME280;35163;48.878;18.040;2022-07-06T03:06:58;98554.50;;;15.76;100.00
49297;BME280;35163;48.878;18.040;2022-07-06T03:09:25;98558.13;;;15.74;100.00
49297;BME280;35163;48.878;18.040;2022-07-06T03:11:52;98550.94;;;15.79;100.00
49297;BME280;35163;48.878;18.040;2022-07-06T03:14:19;98554.59;;;15.75;100.00
49297;BME280;35163;48.878;18.040;2022-07-06T03:16:45;98561.88;;;15.86;100.00
49297;BME280;35163;48.878;18.040;2022-07-06T03:19:17;98558.94;;;15.92;100.00
49297;BME280;35163;48.878;18.040;2022-07-06T03:21:44;98555.72;;;15.87;100.00
49297;BME280;35163;48.878;18.040;2022-07-06T03:24:10;98556.59;;;15.87;100.00
49297;BME280;35163;48.878;18.040;2022-07-06T03:26:37;98553.72;;;15.92;100.00
49297;BME280;35163;48.878;18.040;2022-07-06T03:29:04;98555.56;;;15.90;100.00
49297;BME280;35163;48.878;18.040;2022-07-06T03:31:30;98559.03;;;15.90;100.00
49297;BME280;35163;48.878;18.040;2022-07-06T03:33:57;98553.97;;;15.87;100.00
49297;BME280;35163;48.878;18.040;2022-07-06T03:36:24;98554.75;;;15.89;99.26
49297;BME280;35163;48.878;18.040;2022-07-06T03:38:51;98559.88;;;15.91;99.57
49297;BME280;35163;48.878;18.040;2022-07-06T03:41:17;98557.75;;;15.99;100.00
49297;BME280;35163;48.878;18.040;2022-07-06T03:43:44;98556.91;;;15.99;99.03
49297;BME280;35163;48.878;18.040;2022-07-06T03:46:11;98565.69;;;15.96;98.17
49297;BME280;35163;48.878;18.040;2022-07-06T03:48:37;98569.97;;;15.97;98.11
49297;BME280;35163;48.878;18.040;2022-07-06T03:51:04;98575.06;;;16.00;99.38
49297;BME280;35163;48.878;18.040;2022-07-06T03:53:33;98575.75;;;16.04;99.77
49297;BME280;35163;48.878;18.040;2022-07-06T03:55:59;98577.53;;;16.03;100.00
49297;BME280;35163;48.878;18.040;2022-07-06T03:58:44;98585.28;;;16.05;99.63
49297;BME280;35163;48.878;18.040;2022-07-06T04:01:11;98573.44;;;15.98;99.01
49297;BME280;35163;48.878;18.040;2022-07-06T04:03:38;98577.03;;;15.95;100.00
49297;BME280;35163;48.878;18.040;2022-07-06T04:06:05;98580.38;;;15.99;100.00
49297;BME280;35163;48.878;18.040;2022-07-06T04:08:32;98576.91;;;15.98;100.00
49297;BME280;35163;48.878;18.040;2022-07-06T04:10:59;98580.41;;;15.97;100.00
49297;BME280;35163;48.878;18.040;2022-07-06T04:13:25;98576.06;;;15.98;98.97
49297;BME280;35163;48.878;18.040;2022-07-06T04:15:52;98577.47;;;16.05;98.57
49297;BME280;35163;48.878;18.040;2022-07-06T04:18:19;98570.94;;;16.14;98.20
49297;BME280;35163;48.878;18.040;2022-07-06T04:20:46;98570.94;;;16.14;98.95
49297;BME280;35163;48.878;18.040;2022-07-06T04:23:13;98573.44;;;16.15;97.81
49297;BME280;35163;48.878;18.040;2022-07-06T04:25:40;98575.81;;;16.20;96.13
49297;BME280;35163;48.878;18.040;2022-07-06T04:28:06;98573.81;;;16.25;95.68
49297;BME280;35163;48.878;18.040;2022-07-06T04:30:33;98582.50;;;16.42;95.74
49297;BME280;35163;48.878;18.040;2022-07-06T04:33:00;98585.53;;;16.50;95.34
49297;BME280;35163;48.878;18.040;2022-07-06T04:35:27;98592.88;;;16.60;95.61
49297;BME280;35163;48.878;18.040;2022-07-06T04:37:54;98588.09;;;16.68;93.76
49297;BME280;35163;48.878;18.040;2022-07-06T04:40:20;98587.16;;;16.69;93.60
49297;BME280;35163;48.878;18.040;2022-07-06T04:42:47;98593.56;;;16.80;92.74
49297;BME280;35163;48.878;18.040;2022-07-06T04:45:14;98587.44;;;16.81;91.81
49297;BME280;35163;48.878;18.040;2022-07-06T04:47:41;98588.94;;;16.85;91.56
49297;BME280;35163;48.878;18.040;2022-07-06T04:50:09;98584.63;;;17.00;90.77
49297;BME280;35163;48.878;18.040;2022-07-06T04:52:36;98579.69;;;17.11;90.89
49297;BME280;35163;48.878;18.040;2022-07-06T04:55:03;98578.94;;;17.26;91.35
49297;BME280;35163;48.878;18.040;2022-07-06T04:57:32;98572.97;;;17.38;89.38
49297;BME280;35163;48.878;18.040;2022-07-06T04:59:58;98575.53;;;17.85;86.44
49297;BME280;35163;48.878;18.040;2022-07-06T05:02:25;98575.06;;;19.08;80.13
49297;BME280;35163;48.878;18.040;2022-07-06T05:04:55;98582.06;;;20.67;72.18
49297;BME280;35163;48.878;18.040;2022-07-06T05:07:21;98585.63;;;21.53;68.50
49297;BME280;35163;48.878;18.040;2022-07-06T05:09:48;98581.47;;;22.32;65.38
49297;BME280;35163;48.878;18.040;2022-07-06T05:12:17;98583.63;;;23.17;62.83
49297;BME280;35163;48.878;18.040;2022-07-06T05:14:44;98584.78;;;23.78;58.31
49297;BME280;35163;48.878;18.040;2022-07-06T05:17:11;98580.75;;;24.17;55.80
49297;BME280;35163;48.878;18.040;2022-07-06T05:19:37;98586.19;;;24.04;56.15
49297;BME280;35163;48.878;18.040;2022-07-06T05:22:04;98588.97;;;24.24;55.38
49297;BME280;35163;48.878;18.040;2022-07-06T05:24:31;98584.56;;;24.75;53.86
49297;BME280;35163;48.878;18.040;2022-07-06T05:26:57;98581.78;;;24.87;52.33
49297;BME280;35163;48.878;18.040;2022-07-06T05:29:24;98584.78;;;25.23;51.31
49297;BME280;35163;48.878;18.040;2022-07-06T05:31:51;98585.88;;;25.51;49.03
49297;BME280;35163;48.878;18.040;2022-07-06T05:34:17;98578.91;;;26.17;47.06
49297;BME280;35163;48.878;18.040;2022-07-06T05:36:44;98585.53;;;25.93;47.77
49297;BME280;35163;48.878;18.040;2022-07-06T05:39:11;98578.06;;;26.55;46.10
49297;BME280;35163;48.878;18.040;2022-07-06T05:41:37;98590.44;;;26.36;45.53
49297;BME280;35163;48.878;18.040;2022-07-06T05:44:04;98593.50;;;26.41;46.08
49297;BME280;35163;48.878;18.040;2022-07-06T05:46:31;98597.00;;;26.32;45.52
49297;BME280;35163;48.878;18.040;2022-07-06T05:48:57;98603.00;;;26.24;46.04
49297;BME280;35163;48.878;18.040;2022-07-06T05:51:43;98610.41;;;27.15;43.61
49297;BME280;35163;48.878;18.040;2022-07-06T05:54:09;98610.47;;;27.05;44.13
49297;BME280;35163;48.878;18.040;2022-07-06T05:56:36;98616.75;;;26.76;44.45
49297;BME280;35163;48.878;18.040;2022-07-06T05:59:03;98612.50;;;26.17;44.94
49297;BME280;35163;48.878;18.040;2022-07-06T06:01:29;98609.34;;;26.51;45.54
49297;BME280;35163;48.878;18.040;2022-07-06T06:03:56;98608.31;;;26.24;46.00
49297;BME280;35163;48.878;18.040;2022-07-06T06:06:23;98597.63;;;26.54;45.29
49297;BME280;35163;48.878;18.040;2022-07-06T06:08:49;98599.59;;;26.52;44.36
49297;BME280;35163;48.878;18.040;2022-07-06T06:11:16;98597.28;;;26.67;44.04
49297;BME280;35163;48.878;18.040;2022-07-06T06:13:43;98594.25;;;27.08;43.23
49297;BME280;35163;48.878;18.040;2022-07-06T06:16:10;98592.09;;;26.93;43.78
49297;BME280;35163;48.878;18.040;2022-07-06T06:18:37;98594.94;;;27.28;42.56
49297;BME280;35163;48.878;18.040;2022-07-06T06:21:08;98597.44;;;27.93;41.51
49297;BME280;35163;48.878;18.040;2022-07-06T06:23:35;98596.50;;;27.03;43.91
49297;BME280;35163;48.878;18.040;2022-07-06T06:26:02;98606.16;;;27.59;42.70
49297;BME280;35163;48.878;18.040;2022-07-06T06:28:29;98602.03;;;26.91;44.30
49297;BME280;35163;48.878;18.040;2022-07-06T06:30:56;98607.97;;;27.76;41.91
49297;BME280;35163;48.878;18.040;2022-07-06T06:33:22;98607.06;;;26.66;43.88
49297;BME280;35163;48.878;18.040;2022-07-06T06:35:51;98602.94;;;27.00;44.01
49297;BME280;35163;48.878;18.040;2022-07-06T06:38:20;98604.34;;;27.23;44.25
49297;BME280;35163;48.878;18.040;2022-07-06T06:40:47;98606.06;;;26.67;42.92
49297;BME280;35163;48.878;18.040;2022-07-06T06:43:14;98611.88;;;26.99;43.96
49297;BME280;35163;48.878;18.040;2022-07-06T06:45:41;98616.41;;;27.35;43.25
49297;BME280;35163;48.878;18.040;2022-07-06T06:48:07;98611.44;;;27.40;42.61
49297;BME280;35163;48.878;18.040;2022-07-06T06:50:42;98608.06;;;27.93;42.08
49297;BME280;35163;48.878;18.040;2022-07-06T06:53:08;98614.94;;;27.77;42.92
49297;BME280;35163;48.878;18.040;2022-07-06T06:55:35;98612.41;;;27.58;42.44
49297;BME280;35163;48.878;18.040;2022-07-06T06:58:02;98605.34;;;28.11;41.07
49297;BME280;35163;48.878;18.040;2022-07-06T07:00:29;98607.28;;;28.01;42.62
49297;BME280;35163;48.878;18.040;2022-07-06T07:02:56;98611.34;;;28.13;40.19
49297;BME280;35163;48.878;18.040;2022-07-06T07:05:22;98607.59;;;27.71;41.07
49297;BME280;35163;48.878;18.040;2022-07-06T07:07:49;98613.16;;;26.77;42.12
49297;BME280;35163;48.878;18.040;2022-07-06T07:10:16;98611.69;;;27.29;42.67
49297;BME280;35163;48.878;18.040;2022-07-06T07:12:45;98614.28;;;28.02;41.12
49297;BME280;35163;48.878;18.040;2022-07-06T07:15:12;98613.22;;;27.95;40.37
49297;BME280;35163;48.878;18.040;2022-07-06T07:17:40;98614.50;;;27.90;39.92
49297;BME280;35163;48.878;18.040;2022-07-06T07:20:07;98617.75;;;28.29;38.72
49297;BME280;35163;48.878;18.040;2022-07-06T07:22:34;98617.75;;;28.02;39.74
49297;BME280;35163;48.878;18.040;2022-07-06T07:25:01;98615.22;;;28.54;37.95
49297;BME280;35163;48.878;18.040;2022-07-06T07:27:28;98627.03;;;29.03;37.53
49297;BME280;35163;48.878;18.040;2022-07-06T07:29:55;98626.03;;;29.04;36.64
49297;BME280;35163;48.878;18.040;2022-07-06T07:32:22;98627.84;;;28.52;36.83
49297;BME280;35163;48.878;18.040;2022-07-06T07:34:48;98628.44;;;27.48;40.25
49297;BME280;35163;48.878;18.040;2022-07-06T07:37:15;98626.19;;;27.98;39.57
49297;BME280;35163;48.878;18.040;2022-07-06T07:39:42;98630.16;;;27.94;38.08
49297;BME280;35163;48.878;18.040;2022-07-06T07:42:08;98635.47;;;28.20;39.07
49297;BME280;35163;48.878;18.040;2022-07-06T07:44:42;98634.16;;;28.24;39.29
49297;BME280;35163;48.878;18.040;2022-07-06T07:47:09;98638.47;;;27.36;38.80
49297;BME280;35163;48.878;18.040;2022-07-06T07:49:36;98648.59;;;26.48;40.91
49297;BME280;35163;48.878;18.040;2022-07-06T07:52:03;98651.84;;;26.21;42.44
49297;BME280;35163;48.878;18.040;2022-07-06T07:54:30;98638.81;;;25.41;44.06
49297;BME280;35163;48.878;18.040;2022-07-06T07:56:57;98627.94;;;25.34;43.83
49297;BME280;35163;48.878;18.040;2022-07-06T07:59:24;98639.19;;;25.06;45.41
49297;BME280;35163;48.878;18.040;2022-07-06T08:01:51;98649.00;;;25.75;45.57
49297;BME280;35163;48.878;18.040;2022-07-06T08:04:19;98653.91;;;26.28;42.53
49297;BME280;35163;48.878;18.040;2022-07-06T08:06:47;98653.84;;;26.57;41.82
49297;BME280;35163;48.878;18.040;2022-07-06T08:09:14;98660.59;;;26.32;42.91
49297;BME280;35163;48.878;18.040;2022-07-06T08:11:42;98668.25;;;26.45;44.00
49297;BME280;35163;48.878;18.040;2022-07-06T08:14:09;98657.41;;;26.94;43.06
49297;BME280;35163;48.878;18.040;2022-07-06T08:16:36;98658.59;;;27.10;41.63
49297;BME280;35163;48.878;18.040;2022-07-06T08:19:03;98654.66;;;26.86;42.36
49297;BME280;35163;48.878;18.040;2022-07-06T08:21:36;98649.25;;;26.60;42.32
49297;BME280;35163;48.878;18.040;2022-07-06T08:24:03;98661.44;;;26.23;42.75
49297;BME280;35163;48.878;18.040;2022-07-06T08:26:29;98653.22;;;26.26;42.66
49297;BME280;35163;48.878;18.040;2022-07-06T08:28:57;98662.59;;;26.58;42.29
49297;BME280;35163;48.878;18.040;2022-07-06T08:31:23;98657.09;;;26.41;42.84
49297;BME280;35163;48.878;18.040;2022-07-06T08:34:10;98657.41;;;26.38;43.43
49297;BME280;35163;48.878;18.040;2022-07-06T08:36:37;98663.00;;;26.35;42.26
49297;BME280;35163;48.878;18.040;2022-07-06T08:39:04;98672.25;;;26.59;41.40
49297;BME280;35163;48.878;18.040;2022-07-06T08:41:30;98667.66;;;26.61;42.08
49297;BME280;35163;48.878;18.040;2022-07-06T08:43:57;98671.34;;;26.20;43.06
49297;BME280;35163;48.878;18.040;2022-07-06T08:46:27;98673.59;;;26.15;42.41
49297;BME280;35163;48.878;18.040;2022-07-06T08:48:55;98669.47;;;25.63;42.75
49297;BME280;35163;48.878;18.040;2022-07-06T08:51:22;98664.75;;;25.67;44.43
49297;BME280;35163;48.878;18.040;2022-07-06T08:53:55;98655.63;;;25.30;46.05
49297;BME280;35163;48.878;18.040;2022-07-06T08:56:24;98648.19;;;24.52;47.67
49297;BME280;35163;48.878;18.040;2022-07-06T08:58:51;98658.66;;;24.33;47.58
49297;BME280;35163;48.878;18.040;2022-07-06T09:01:18;98663.75;;;24.87;46.28
49297;BME280;35163;48.878;18.040;2022-07-06T09:03:49;98653.00;;;24.79;46.10
49297;BME280;35163;48.878;18.040;2022-07-06T09:06:18;98657.00;;;24.73;47.77
49297;BME280;35163;48.878;18.040;2022-07-06T09:08:47;98657.16;;;24.71;47.34
49297;BME280;35163;48.878;18.040;2022-07-06T09:11:15;98666.59;;;25.05;47.51
49297;BME280;35163;48.878;18.040;2022-07-06T09:13:42;98660.13;;;24.88;47.02
49297;BME280;35163;48.878;18.040;2022-07-06T09:16:10;98655.53;;;24.90;47.21
49297;BME280;35163;48.878;18.040;2022-07-06T09:18:57;98656.44;;;25.00;46.31
49297;BME280;35163;48.878;18.040;2022-07-06T09:21:29;98661.84;;;24.99;45.48
49297;BME280;35163;48.878;18.040;2022-07-06T09:24:00;98663.16;;;24.83;45.11
49297;BME280;35163;48.878;18.040;2022-07-06T09:26:29;98653.50;;;24.94;43.96
49297;BME280;35163;48.878;18.040;2022-07-06T09:28:56;98655.78;;;25.18;42.15
49297;BME280;35163;48.878;18.040;2022-07-06T09:31:23;98658.00;;;25.23;41.97
49297;BME280;35163;48.878;18.040;2022-07-06T09:33:59;98654.50;;;25.22;41.17
49297;BME280;35163;48.878;18.040;2022-07-06T09:36:46;98658.47;;;25.48;42.61
49297;BME280;35163;48.878;18.040;2022-07-06T09:39:27;98662.38;;;25.83;41.80
49297;BME280;35163;48.878;18.040;2022-07-06T09:41:59;98668.91;;;25.89;40.21
49297;BME280;35163;48.878;18.040;2022-07-06T09:44:28;98672.50;;;26.08;39.65
49297;BME280;35163;48.878;18.040;2022-07-06T09:46:57;98681.03;;;25.92;40.46
49297;BME280;35163;48.878;18.040;2022-07-06T09:49:24;98696.75;;;25.54;41.52
49297;BME280;35163;48.878;18.040;2022-07-06T09:52:06;98699.38;;;24.83;43.89
49297;BME280;35163;48.878;18.040;2022-07-06T09:54:33;98706.66;;;24.38;45.36
49297;BME280;35163;48.878;18.040;2022-07-06T09:57:05;98713.88;;;23.82;46.70
49297;BME280;35163;48.878;18.040;2022-07-06T09:59:35;98727.00;;;22.23;53.41
49297;BME280;35163;48.878;18.040;2022-07-06T10:02:04;98710.09;;;21.16;57.74
49297;BME280;35163;48.878;18.040;2022-07-06T10:04:32;98746.47;;;20.31;57.91
49297;BME280;35163;48.878;18.040;2022-07-06T10:07:00;98759.19;;;19.54;58.96
49297;BME280;35163;48.878;18.040;2022-07-06T10:09:28;98787.78;;;18.71;63.38
49297;BME280;35163;48.878;18.040;2022-07-06T10:12:00;98801.06;;;18.37;66.66
49297;BME280;35163;48.878;18.040;2022-07-06T10:14:29;98825.94;;;17.97;70.04
49297;BME280;35163;48.878;18.040;2022-07-06T10:16:58;98819.69;;;17.68;73.67
49297;BME280;35163;48.878;18.040;2022-07-06T10:19:26;98821.38;;;17.53;76.96
49297;BME280;35163;48.878;18.040;2022-07-06T10:21:53;98812.88;;;17.15;78.62
49297;BME280;35163;48.878;18.040;2022-07-06T10:24:22;98807.25;;;17.05;82.65
49297;BME280;35163;48.878;18.040;2022-07-06T10:26:50;98804.00;;;16.48;82.69
49297;BME280;35163;48.878;18.040;2022-07-06T10:29:17;98822.38;;;16.10;86.47
49297;BME280;35163;48.878;18.040;2022-07-06T10:31:46;98817.53;;;15.83;92.72
49297;BME280;35163;48.878;18.040;2022-07-06T10:34:15;98806.09;;;15.66;94.04
49297;BME280;35163;48.878;18.040;2022-07-06T10:36:46;98806.06;;;15.67;95.60
49297;BME280;35163;48.878;18.040;2022-07-06T10:39:14;98789.09;;;15.59;96.50
49297;BME280;35163;48.878;18.040;2022-07-06T10:41:59;98791.72;;;15.76;99.53
49297;BME280;35163;48.878;18.040;2022-07-06T10:44:27;98805.84;;;15.72;96.21
49297;BME280;35163;48.878;18.040;2022-07-06T10:46:58;98821.97;;;15.81;99.48
49297;BME280;35163;48.878;18.040;2022-07-06T10:49:26;98822.16;;;15.95;100.00
49297;BME280;35163;48.878;18.040;2022-07-06T10:52:17;98800.50;;;16.12;96.23
49297;BME280;35163;48.878;18.040;2022-07-06T10:54:44;98805.84;;;16.28;94.34
49297;BME280;35163;48.878;18.040;2022-07-06T10:57:13;98799.53;;;16.15;91.91
49297;BME280;35163;48.878;18.040;2022-07-06T11:00:00;98797.56;;;16.38;90.45
49297;BME280;35163;48.878;18.040;2022-07-06T11:02:37;98790.78;;;16.69;91.20
49297;BME280;35163;48.878;18.040;2022-07-06T11:05:10;98777.97;;;17.16;87.67
49297;BME280;35163;48.878;18.040;2022-07-06T11:07:48;98785.94;;;17.47;84.70
49297;BME280;35163;48.878;18.040;2022-07-06T11:10:16;98772.03;;;17.63;84.01
49297;BME280;35163;48.878;18.040;2022-07-06T11:12:45;98776.16;;;17.99;80.45
49297;BME280;35163;48.878;18.040;2022-07-06T11:15:12;98774.34;;;18.16;84.03
49297;BME280;35163;48.878;18.040;2022-07-06T11:17:43;98769.16;;;18.61;84.29
49297;BME280;35163;48.878;18.040;2022-07-06T11:20:29;98773.28;;;18.80;84.04
49297;BME280;35163;48.878;18.040;2022-07-06T11:23:04;98771.00;;;18.59;80.49
49297;BME280;35163;48.878;18.040;2022-07-06T11:25:30;98772.34;;;18.66;79.70
49297;BME280;35163;48.878;18.040;2022-07-06T11:27:58;98779.22;;;18.53;76.45
49297;BME280;35163;48.878;18.040;2022-07-06T11:30:25;98770.75;;;18.93;77.59
49297;BME280;35163;48.878;18.040;2022-07-06T11:32:59;98767.50;;;19.18;76.62
49297;BME280;35163;48.878;18.040;2022-07-06T11:35:26;98755.63;;;19.13;76.53
49297;BME280;35163;48.878;18.040;2022-07-06T11:37:53;98756.16;;;19.18;72.04
49297;BME280;35163;48.878;18.040;2022-07-06T11:40:20;98760.56;;;19.32;69.61
49297;BME280;35163;48.878;18.040;2022-07-06T11:42:53;98761.50;;;19.73;71.82
49297;BME280;35163;48.878;18.040;2022-07-06T11:45:26;98760.59;;;19.87;73.05
49297;BME280;35163;48.878;18.040;2022-07-06T11:48:10;98759.72;;;19.74;67.45
49297;BME280;35163;48.878;18.040;2022-07-06T11:50:36;98766.47;;;20.06;66.95
49297;BME280;35163;48.878;18.040;2022-07-06T11:53:03;98767.47;;;20.31;64.34
49297;BME280;35163;48.878;18.040;2022-07-06T11:55:30;98770.25;;;20.55;69.26
49297;BME280;35163;48.878;18.040;2022-07-06T11:57:57;98769.41;;;20.55;65.55
49297;BME280;35163;48.878;18.040;2022-07-06T12:00:26;98768.03;;;20.75;64.95
49297;BME280;35163;48.878;18.040;2022-07-06T12:03:02;98761.97;;;21.00;63.38
49297;BME280;35163;48.878;18.040;2022-07-06T12:05:30;98762.47;;;21.06;62.10
49297;BME280;35163;48.878;18.040;2022-07-06T12:08:05;98757.28;;;21.30;62.21
49297;BME280;35163;48.878;18.040;2022-07-06T12:10:32;98749.31;;;21.56;61.98
49297;BME280;35163;48.878;18.040;2022-07-06T12:13:03;98740.66;;;21.43;61.76
49297;BME280;35163;48.878;18.040;2022-07-06T12:15:32;98737.72;;;21.59;61.59
49297;BME280;35163;48.878;18.040;2022-07-06T12:17:59;98743.63;;;21.63;55.88
49297;BME280;35163;48.878;18.040;2022-07-06T12:20:26;98741.63;;;21.91;59.25
49297;BME280;35163;48.878;18.040;2022-07-06T12:23:05;98743.16;;;22.18;55.27
49297;BME280;35163;48.878;18.040;2022-07-06T12:25:34;98731.88;;;22.04;55.08
49297;BME280;35163;48.878;18.040;2022-07-06T12:28:00;98732.53;;;21.95;55.48
49297;BME280;35163;48.878;18.040;2022-07-06T12:30:28;98730.56;;;22.10;59.17
49297;BME280;35163;48.878;18.040;2022-07-06T12:35:38;98729.66;;;22.23;57.82
49297;BME280;35163;48.878;18.040;2022-07-06T12:38:04;98728.47;;;22.38;57.02
49297;BME280;35163;48.878;18.040;2022-07-06T12:40:31;98732.25;;;22.70;57.53
49297;BME280;35163;48.878;18.040;2022-07-06T12:42:58;98737.56;;;22.81;53.33
49297;BME280;35163;48.878;18.040;2022-07-06T12:45:28;98731.91;;;22.98;54.67
49297;BME280;35163;48.878;18.040;2022-07-06T12:48:08;98737.53;;;22.70;54.75
49297;BME280;35163;48.878;18.040;2022-07-06T12:50:37;98730.34;;;22.72;56.13
49297;BME280;35163;48.878;18.040;2022-07-06T12:53:06;98731.69;;;22.66;57.75
49297;BME280;35163;48.878;18.040;2022-07-06T12:56:08;98723.88;;;22.88;55.72
49297;BME280;35163;48.878;18.040;2022-07-06T12:58:34;98719.34;;;22.90;50.62